首页
METAR-TAF:

METAR-TAF

机场 :

戴维斯-蒙森空军基地

图森, 亞利桑那州, 美国

纬度: 32-10N, 经度: 110-53W, 海拔: 824米

当前天气观测

该预报发布于27分钟前的06:58 UTC
风速6节,风向东南
温度 8°C
湿度 61%
气压 1016 hPa
能見度: 16.1公里
天空无云

METAR: KDMA 170658Z AUTO 14006KT 10SM CLR 08/01 A3001 RMK AO2 SLP144 T00810010 402200037 FZRANO $

时间: 00:25 (07:25 UTC)

预报

该预报发布于1小时和20分钟前的06:05 UTC
预报有效从17日的 06点(UTC)到 18日的 12点(UTC)
风速6节,风向东转东南
能见度10公里或以上
散云层高于28000英尺
成为
从 17日的 18点(UTC)到 17日的 19点(UTC)
风速9节,风向西
能见度10公里或以上
天空无云
成为
从 18日的 03点(UTC)到 18日的 04点(UTC)
风速12节,风向
能见度10公里或以上
天空无云

TAF: KDMA 170605Z 1706/1812 12006KT 9999 SCT280 QNH2995INS BECMG 1718/1719 28009KT 9999 SKC QNH2986INS BECMG 1803/1804 19012KT 9999 SKC QNH2991INS TX23/1721Z TN05/1714Z

超过4000个机场的气象观测和天气预报(METAR&TAF报告)。

可查询的气象台以黄色和红色小点在地图上表示。

将鼠标移到小点上方,可查看气象台名称。

然后点击查看天气观测和预报。

如需切换地图:点击带黑十字的绿色按钮放大地图;点击带横线的绿色按钮缩小地图;或者点击绿色箭头查看邻近地区的地图。


METAR-TAF: